Flight Track Log - Related Links

Times and Time Zones

All times are in EDT time to prevent confusion due to time zone crossing. See the SWA407 flight status page for this flight to view local times or setup timezone preferences in your user account.

Time Position Orientation Groundspeed Altitude Reporting Facility
EDT Latitude Longitude Course Direction KTS MPH feet Rate Location/Type
Mon 03:40:45 PM 27.9500 -82.5500 North 150 173 1,200  Level Tampa TRACON
Mon 03:41:21 PM 27.9333 -82.5500 180° South 184 212 1,900 2,000 Climbing Tampa TRACON
Mon 03:42:21 PM 27.8833 -82.6000 221° Southwest 241 277 4,400 2,400 Climbing Tampa TRACON
Mon 03:43:21 PM 27.9167 -82.6333 319° Northwest 269 310 6,700 2,700 Climbing Tampa TRACON
Mon 03:44:21 PM 28.0000 -82.6333 360° North 291 335 9,800 2,317 Climbing Tampa TRACON
Mon 03:46:00 PM 28.1885 -82.5667 North  Level FlightAware Approximate
Mon 03:47:40 PM 28.3125 -82.6119 North 377 434 16,700  Level Jacksonville Center
Mon 03:48:40 PM 28.4208 -82.6047 North 391 450 18,800 2,250 Climbing Jacksonville Center
Mon 03:49:40 PM 28.5336 -82.5994 North 391 450 21,200 5,400 Climbing Jacksonville Center
Mon 03:51:40 PM 28.7611 -82.5869 North 391 450 35,000 1,800 Climbing Jacksonville Center
Mon 03:52:40 PM 28.8989 -82.6197 348° North 453 521 26,600 -3,500 Descending Jacksonville Center
Mon 03:53:40 PM 29.0261 -82.6383 353° North 442 509 28,000 1,450 Climbing Jacksonville Center
Mon 03:54:40 PM 29.1514 -82.6547 353° North 449 517 29,500 1,800 Climbing Jacksonville Center
Mon 03:55:40 PM 29.2767 -82.6736 353° North 449 517 31,600 1,850 Climbing Jacksonville Center
Mon 03:56:40 PM 29.3978 -82.6900 353° North 449 517 33,200 1,200 Climbing Jacksonville Center
Mon 03:57:40 PM 29.5086 -82.6944 358° North 444 511 34,000 400 Climbing Jacksonville Center
Mon 03:58:40 PM 29.6339 -82.6967 359° North 444 511 34,000 500 Level Jacksonville Center
Mon 03:59:40 PM 29.7589 -82.6917 North 439 505 35,000 950 Climbing Jacksonville Center
Mon 04:00:40 PM 29.8822 -82.6794 North 434 499 35,900 900 Climbing Jacksonville Center
Mon 04:01:40 PM 30.0075 -82.6647 North 446 513 36,800 550 Climbing Jacksonville Center
Mon 04:02:40 PM 30.1453 -82.6500 North 451 519 37,000 100 Climbing Jacksonville Center
Mon 04:03:40 PM 30.2725 -82.6378 North 451 519 37,000  Level Jacksonville Center
Mon 04:04:40 PM 30.3831 -82.6300 North 444 511 37,000  Level Jacksonville Center
Mon 04:05:40 PM 30.5064 -82.6178 North 444 511 37,000  Level Jacksonville Center
Mon 04:06:40 PM 30.6294 -82.6028 North 444 511 37,000  Level Jacksonville Center
Mon 04:07:40 PM 30.7528 -82.5928 North 439 505 37,000  Level Jacksonville Center
Mon 04:08:40 PM 30.8758 -82.5803 North 439 505 37,000  Level Jacksonville Center
Mon 04:09:40 PM 30.9969 -82.5653 North 439 505 37,000  Level Jacksonville Center
Mon 04:10:40 PM 31.1181 -82.5553 North 439 505 37,000  Level Jacksonville Center
Mon 04:11:40 PM 31.2411 -82.5403 North 439 505 37,000  Level Jacksonville Center
Mon 04:12:40 PM 31.3747 -82.5250 North 439 505 37,000  Level Jacksonville Center
Mon 04:13:40 PM 31.5000 -82.5100 North 444 511 37,000  Level Jacksonville Center
Mon 04:15:42 PM 31.7367 -82.4761 North 454 522 37,000  Level Atlanta Center
Mon 04:16:42 PM 31.8594 -82.4567 North 446 513 37,000  Level Atlanta Center
Mon 04:17:42 PM 31.9806 -82.4400 North 441 507 37,000  Level Atlanta Center
Mon 04:18:42 PM 32.1033 -82.4181 North 441 507 37,000  Level Atlanta Center
Mon 04:19:43 PM 32.2242 -82.4011 North 441 507 37,000  Level Atlanta Center
Mon 04:20:42 PM 32.3469 -82.3792 North 441 507 37,000  Level Atlanta Center
Mon 04:21:42 PM 32.4700 -82.3647 North 441 507 37,000  Level Atlanta Center
Mon 04:22:43 PM 32.5906 -82.3428 North 441 507 37,000  Level Atlanta Center
Mon 04:23:42 PM 32.7261 -82.3228 North 448 516 37,000  Level Atlanta Center
Mon 04:24:42 PM 32.8469 -82.3031 North 441 507 37,000  Level Atlanta Center
Mon 04:25:42 PM 32.9656 -82.2833 North 436 502 37,000  Level Atlanta Center
Mon 04:26:43 PM 33.0883 -82.2611 North 436 502 37,000  Level Atlanta Center
Mon 04:27:42 PM 33.2092 -82.2414 North 441 507 37,000  Level Atlanta Center
Mon 04:28:42 PM 33.3319 -82.2239 North 441 507 37,000  Level Atlanta Center
Mon 04:29:42 PM 33.4528 -82.2014 North 441 507 37,000  Level Atlanta Center
Mon 04:30:43 PM 33.5756 -82.1814 North 441 507 37,000  Level Atlanta Center
Mon 04:31:43 PM 33.6964 -82.1611 North 441 507 37,000  Level Atlanta Center
Mon 04:32:42 PM 33.8192 -82.1411 North 441 507 37,000  Level Atlanta Center
Mon 04:33:42 PM 33.9275 -82.1211 North 441 507 37,000  Level Atlanta Center
Mon 04:34:42 PM 34.0481 -82.1008 North 436 502 37,000  Level Atlanta Center
Mon 04:35:43 PM 34.1647 -82.0806 North 431 496 37,000  Level Atlanta Center
Mon 04:36:42 PM 34.2814 -82.0603 North 425 489 37,000  Level Atlanta Center
Mon 04:37:42 PM 34.4000 -82.0425 North 425 489 37,000  Level Atlanta Center
Mon 04:38:42 PM 34.5186 -82.0194 North 425 489 37,000  Level Atlanta Center
Mon 04:39:42 PM 34.6350 -81.9989 North 425 489 37,000  Level Atlanta Center
Mon 04:40:42 PM 34.7536 -81.9783 North 425 489 37,000  Level Atlanta Center
Mon 04:41:42 PM 34.8744 -81.9575 North 425 489 37,000  Level Atlanta Center
Mon 04:42:42 PM 35.0056 -81.9367 North 425 489 37,000  Level Atlanta Center
Mon 04:43:42 PM 35.1200 -81.9286 North 425 489 37,000  Level Atlanta Center
Mon 04:44:43 PM 35.2411 -81.9206 North 425 489 37,000  Level Atlanta Center
Mon 04:45:42 PM 35.3597 -81.9147 North 419 482 37,000  Level Atlanta Center
Mon 04:46:42 PM 35.4767 -81.9119 North 419 482 37,000  Level Atlanta Center
Mon 04:47:42 PM 35.5933 -81.9064 North 419 482 37,000  Level Atlanta Center
Mon 04:48:42 PM 35.7017 -81.9008 North 419 482 37,000  Level Atlanta Center
Mon 04:49:42 PM 35.8164 -81.8953 North 420 483 37,000  Level Atlanta Center
Mon 04:50:42 PM 35.9353 -81.8897 North 420 483 37,000  Level Atlanta Center
Mon 04:51:42 PM 36.0497 -81.8839 North 420 483 37,000  Level Atlanta Center
Mon 04:52:42 PM 36.1789 -81.8753 North 415 478 37,000  Level Atlanta Center
Mon 04:53:42 PM 36.2936 -81.8697 North 415 478 37,000  Level Atlanta Center
Mon 04:54:42 PM 36.4125 -81.8667 North 421 484 37,000  Level Atlanta Center
Mon 04:55:42 PM 36.5247 -81.8583 North 416 479 37,000  Level Atlanta Center
Mon 04:57:33 PM 36.7383 -81.8475 North 424 488 37,000  Level Indianapolis Center
Mon 04:58:35 PM 36.8564 -81.8414 North 425 489 37,000  Level Indianapolis Center
Mon 04:59:37 PM 36.9719 -81.8011 16° North 431 496 37,000  Level Indianapolis Center
Mon 05:00:39 PM 37.0922 -81.7553 17° North 444 511 37,000  Level Indianapolis Center
Mon 05:01:41 PM 37.2286 -81.7006 18° North 442 509 37,000  Level Indianapolis Center
Mon 05:02:43 PM 37.3453 -81.6550 17° North 441 507 37,000  Level Indianapolis Center
Mon 05:03:45 PM 37.4622 -81.6097 17° North 439 505 37,000  Level Indianapolis Center
Mon 05:04:47 PM 37.5786 -81.5636 17° North 438 504 37,000  Level Indianapolis Center
Mon 05:05:49 PM 37.6947 -81.5181 17° North 438 504 37,000  Level Indianapolis Center
Mon 05:06:51 PM 37.8097 -81.4714 18° North 437 503 37,000  Level Indianapolis Center
Mon 05:07:53 PM 37.9503 -81.4150 18° North 442 509 37,000  Level Indianapolis Center
Mon 05:08:55 PM 38.0669 -81.3686 17° North 443 510 37,000  Level Indianapolis Center
Mon 05:09:57 PM 38.1844 -81.3206 18° North 443 510 37,000  Level Indianapolis Center
Mon 05:10:59 PM 38.3019 -81.2728 18° North 443 510 37,000  Level Indianapolis Center
Mon 05:12:01 PM 38.4183 -81.2244 18° North 443 510 37,000  Level Indianapolis Center
Mon 05:13:03 PM 38.5581 -81.1678 18° North 443 510 37,000  Level Indianapolis Center
Mon 05:14:05 PM 38.6753 -81.1208 17° North 445 512 37,000  Level Indianapolis Center
Mon 05:15:07 PM 38.7917 -81.0711 18° North 445 512 37,000  Level Indianapolis Center
Mon 05:16:09 PM 38.9094 -81.0233 18° North 447 514 37,000  Level Indianapolis Center
Mon 05:17:12 PM 39.0275 -80.9756 17° North 448 516 37,000  Level Indianapolis Center
Mon 05:18:14 PM 39.1686 -80.9158 18° North 445 512 37,000  Level Indianapolis Center
Mon 05:19:16 PM 39.2875 -80.8672 18° North 448 516 37,000  Level Indianapolis Center
Mon 05:20:18 PM 39.4078 -80.8156 18° North 454 522 37,000  Level Indianapolis Center
Mon 05:21:20 PM 39.5289 -80.7658 18° North 457 526 37,000  Level Indianapolis Center
Mon 05:22:22 PM 39.6492 -80.7153 18° North 455 524 37,000  Level Indianapolis Center
Mon 05:22:45 PM 39.7003 -80.6964 16° North 444 511 37,000  Level Cleveland Center
Mon 05:23:44 PM 39.8211 -80.6453 18° North 444 511 37,000  Level Cleveland Center
Mon 05:24:45 PM 39.9422 -80.5911 19° North 444 511 37,000  Level Cleveland Center
Mon 05:25:44 PM 40.0631 -80.5425 17° North 444 511 37,000  Level Cleveland Center
Mon 05:26:44 PM 40.1817 -80.4906 18° North 444 511 37,000 -450 Level Cleveland Center
Mon 05:27:44 PM 40.3006 -80.4389 18° North 444 511 36,100 -1,537 Descending Cleveland Center
Mon 05:28:45 PM 40.4172 -80.3894 18° North 444 511 33,900 -2,182 Descending Cleveland Center
Mon 05:29:45 PM 40.5422 -80.3372 18° North 438 504 31,700 -1,450 Descending Cleveland Center
Mon 05:30:45 PM 40.6547 -80.2875 19° North 438 504 31,000 -403 Descending Cleveland Center
Mon 05:31:44 PM 40.7733 -80.2350 19° North 438 504 30,900 -550 Descending Cleveland Center
Mon 05:32:45 PM 40.8794 -80.1822 21° North 447 514 29,900 -992 Descending Cleveland Center
Mon 05:33:45 PM 41.0000 -80.1153 23° Northeast 442 509 28,900 -1,000 Descending Cleveland Center
Mon 05:34:45 PM 41.1083 -80.0567 22° Northeast 430 495 27,900 -1,000 Descending Cleveland Center
Mon 05:35:45 PM 41.2142 -79.9981 23° Northeast 417 480 26,900 -1,050 Descending Cleveland Center
Mon 05:36:45 PM 41.3183 -79.9417 22° Northeast 411 473 25,800 -1,050 Descending Cleveland Center
Mon 05:37:45 PM 41.4222 -79.8853 22° Northeast 406 467 24,800 -908 Descending Cleveland Center
Mon 05:38:44 PM 41.5239 -79.8233 25° Northeast 406 467 24,000 -403 Descending Cleveland Center
Mon 05:39:44 PM 41.6256 -79.7692 22° Northeast 401 461 24,000  Level Cleveland Center
Mon 05:40:44 PM 41.7233 -79.7153 22° Northeast 401 461 24,000 -600 Level Cleveland Center
Mon 05:41:44 PM 41.8228 -79.6581 23° Northeast 388 447 22,800 -1,537 Descending Cleveland Center
Mon 05:42:45 PM 41.9286 -79.5981 23° Northeast 383 441 20,900 -1,750 Descending Cleveland Center
Mon 05:43:44 PM 42.0242 -79.5433 23° Northeast 376 433 19,300 -1,650 Descending Cleveland Center
Mon 05:44:45 PM 42.1153 -79.4886 24° Northeast 365 420 17,600 -1,636 Descending Cleveland Center
Mon 05:45:45 PM 42.2064 -79.4394 22° Northeast 360 414 16,000 -1,714 Descending Cleveland Center
Mon 05:46:44 PM 42.2914 -79.3819 27° Northeast 348 400 14,200 -2,350 Descending Cleveland Center
Mon 05:47:45 PM 42.3761 -79.3072 33° Northeast 356 410 11,300 -2,132 Descending Cleveland Center
Mon 05:48:45 PM 42.4669 -79.2267 33° Northeast 368 423 9,900 -1,400 Descending Cleveland Center
Mon 05:49:45 PM 42.5369 -79.1631 34° Northeast 355 409 8,500 -1,300 Descending Cleveland Center
Mon 05:50:45 PM 42.6131 -79.0936 34° Northeast 337 388 7,300 -1,261 Descending Cleveland Center
Mon 05:51:44 PM 42.6936 -79.0183 34° Northeast 324 373 6,000 -1,050 Descending Cleveland Center
Mon 05:52:45 PM 42.7636 -78.9572 33° Northeast 308 354 5,200 -1,050 Descending Cleveland Center
Mon 05:53:44 PM 42.8169 -78.8992 39° Northeast 274 315 3,900 -1,172 Descending Cleveland Center
Mon 05:55:34 PM 42.8833 -78.8000 48° Northeast 165 190 1,900 -953 Descending Buffalo TRACON
Mon 05:56:34 PM 42.9167 -78.7667 36° Northeast 136 157 1,200 -700 Descending Buffalo TRACON
Mon 05:58:00 PM 42.9333 -78.7167 36° Northeast  Level FlightAware Approximate
Mon 06:05:00 PM 42.9404 -78.7306 36° Northeast  Level Estimated

Login

Don't have an account? Register now (free) for customized features, flight alerts, and more!